createdAt,value
2022-11-25T00:00:29.295Z,69.38
2022-11-25T00:02:58.272Z,69.65
2022-11-25T00:05:27.407Z,69.34
2022-11-25T00:07:55.707Z,69.14
2022-11-25T00:10:23.645Z,69.68
2022-11-25T00:12:52.746Z,69.28
2022-11-25T00:15:20.822Z,69.55
2022-11-25T00:17:49.473Z,69.76
2022-11-25T00:20:18.275Z,69.63
2022-11-25T00:22:46.285Z,68.68
2022-11-25T00:25:14.658Z,69.25
2022-11-25T00:27:42.985Z,69.12
2022-11-25T00:30:13.515Z,68.55
2022-11-25T00:32:41.891Z,67.93
2022-11-25T00:35:09.647Z,67.90
2022-11-25T00:37:39.663Z,69.32
2022-11-25T00:40:09.930Z,68.81
2022-11-25T00:42:56.443Z,68.93
2022-11-25T00:45:24.549Z,69.29
2022-11-25T00:47:54.459Z,68.89
2022-11-25T00:50:23.032Z,69.89
2022-11-25T00:52:52.230Z,69.34
2022-11-25T00:55:23.303Z,70.59
2022-11-25T01:00:37.963Z,70.43
2022-11-25T01:03:07.169Z,70.82
2022-11-25T01:05:44.023Z,71.24
2022-11-25T01:08:12.411Z,71.36
2022-11-25T01:10:40.142Z,71.21
2022-11-25T01:13:08.095Z,70.35
2022-11-25T01:15:41.580Z,70.93
2022-11-25T01:18:10.717Z,69.99
2022-11-25T01:20:39.900Z,70.63
2022-11-25T01:23:07.924Z,71.10
2022-11-25T01:25:39.917Z,70.16
2022-11-25T01:28:08.277Z,70.79
2022-11-25T01:30:41.048Z,70.70
2022-11-25T01:33:10.199Z,69.77
2022-11-25T01:35:39.172Z,70.63
2022-11-25T01:38:06.893Z,70.05
2022-11-25T01:40:36.476Z,71.00
2022-11-25T01:43:04.769Z,70.72
2022-11-25T01:45:37.972Z,70.16
2022-11-25T01:48:28.689Z,69.02
2022-11-25T01:50:56.943Z,68.89
2022-11-25T01:53:27.560Z,68.84
2022-11-25T01:56:04.203Z,68.58
2022-11-25T01:58:38.779Z,67.84
2022-11-25T02:01:12.525Z,66.70
2022-11-25T02:03:47.707Z,65.83
2022-11-25T02:06:19.364Z,65.54
2022-11-25T02:08:52.086Z,66.22
2022-11-25T02:11:23.240Z,65.37
2022-11-25T02:13:52.746Z,66.24
2022-11-25T02:16:22.908Z,65.30
2022-11-25T02:19:00.219Z,66.85
2022-11-25T02:21:51.122Z,64.94
2022-11-25T02:24:42.640Z,65.22
2022-11-25T02:27:12.935Z,66.34
2022-11-25T02:29:44.639Z,65.20
2022-11-25T02:32:12.835Z,64.64
2022-11-25T02:37:32.725Z,64.42
2022-11-25T02:40:01.606Z,65.58
2022-11-25T02:42:30.952Z,64.54
2022-11-25T02:45:01.418Z,64.16
2022-11-25T02:47:33.705Z,64.58
2022-11-25T02:50:02.006Z,64.25
2022-11-25T02:52:31.580Z,64.86
2022-11-25T02:54:59.407Z,64.93
2022-11-25T02:57:27.666Z,64.36
2022-11-25T03:01:35.584Z,64.51
2022-11-25T03:04:08.099Z,64.74
2022-11-25T03:06:36.674Z,65.84
2022-11-25T03:09:05.822Z,65.79
2022-11-25T03:11:57.539Z,66.00
2022-11-25T03:14:25.952Z,66.38
2022-11-25T03:16:53.881Z,67.06
2022-11-25T03:19:21.817Z,67.33
2022-11-25T03:21:49.662Z,67.46
2022-11-25T03:24:17.768Z,68.11
2022-11-25T03:26:48.457Z,68.46
2022-11-25T03:29:16.521Z,67.94
2022-11-25T03:31:44.437Z,68.18
2022-11-25T03:34:13.051Z,68.77
2022-11-25T03:36:42.181Z,68.90
2022-11-25T03:39:10.722Z,68.60
2022-11-25T03:41:39.191Z,69.13
2022-11-25T03:44:07.182Z,69.29
2022-11-25T03:46:35.379Z,69.45
2022-11-25T03:49:05.961Z,69.64
2022-11-25T03:51:34.956Z,70.27
2022-11-25T03:54:03.206Z,70.50
2022-11-25T03:56:40.123Z,70.36
2022-11-25T03:59:08.009Z,71.21
2022-11-25T04:01:40.064Z,71.10
2022-11-25T04:04:11.014Z,71.19
2022-11-25T04:06:41.521Z,71.13
2022-11-25T04:09:12.188Z,70.94
2022-11-25T04:11:59.396Z,71.02
2022-11-25T04:14:31.311Z,70.80
2022-11-25T04:16:59.394Z,71.26
2022-11-25T04:19:27.620Z,71.01
2022-11-25T04:21:55.751Z,71.36
2022-11-25T04:24:26.110Z,71.01
2022-11-25T04:26:55.217Z,71.33
2022-11-25T04:29:23.308Z,71.95
2022-11-25T04:31:51.382Z,72.18
2022-11-25T04:34:19.255Z,71.56
2022-11-25T04:36:50.133Z,71.75
2022-11-25T04:39:18.958Z,71.54
2022-11-25T04:41:47.285Z,71.85
2022-11-25T04:44:15.556Z,71.50
2022-11-25T04:46:44.353Z,71.16
2022-11-25T04:49:12.520Z,71.20
2022-11-25T04:51:40.980Z,71.76
2022-11-25T04:54:11.208Z,71.75
2022-11-25T04:56:42.692Z,71.79
2022-11-25T04:59:29.648Z,71.69
2022-11-25T05:01:58.033Z,71.97
2022-11-25T05:04:40.311Z,71.77
2022-11-25T05:07:09.811Z,71.92
2022-11-25T05:09:38.689Z,72.34
2022-11-25T05:12:32.920Z,72.42
2022-11-25T05:15:02.744Z,71.78
2022-11-25T05:17:32.961Z,71.94
2022-11-25T05:20:01.167Z,72.02
2022-11-25T05:22:32.565Z,71.94
2022-11-25T05:25:01.111Z,71.80
2022-11-25T05:27:30.700Z,72.47
2022-11-25T05:30:02.737Z,71.81
2022-11-25T05:32:30.795Z,71.73
2022-11-25T05:35:00.662Z,71.94
2022-11-25T05:37:28.768Z,71.68
2022-11-25T05:40:04.717Z,71.79
2022-11-25T05:42:51.241Z,71.20
2022-11-25T05:45:20.796Z,70.68
2022-11-25T05:47:49.682Z,70.29
2022-11-25T05:50:22.007Z,68.91
2022-11-25T05:53:04.488Z,69.14
2022-11-25T05:55:34.283Z,68.05
2022-11-25T05:58:06.429Z,68.16
2022-11-25T06:00:36.115Z,68.07
2022-11-25T06:03:09.794Z,67.89
2022-11-25T06:05:38.619Z,68.08
2022-11-25T06:08:06.844Z,67.50
2022-11-25T06:10:35.103Z,67.34
2022-11-25T06:13:03.001Z,67.37
2022-11-25T06:15:31.002Z,67.41
2022-11-25T06:18:00.130Z,66.25
2022-11-25T06:20:29.935Z,65.97
2022-11-25T06:22:59.001Z,65.83
2022-11-25T06:25:34.305Z,65.15
2022-11-25T06:28:18.857Z,64.70
2022-11-25T06:30:50.349Z,64.74
2022-11-25T06:33:31.397Z,64.58
2022-11-25T06:36:04.360Z,64.52
2022-11-25T06:38:32.557Z,64.43
2022-11-25T06:41:05.369Z,64.04
2022-11-25T06:43:33.440Z,63.85
2022-11-25T06:46:06.229Z,64.17
2022-11-25T06:48:34.517Z,64.14
2022-11-25T06:51:05.295Z,64.07
2022-11-25T06:53:34.241Z,61.92
2022-11-25T06:56:07.954Z,63.68
2022-11-25T06:58:37.601Z,63.04
2022-11-25T07:01:09.360Z,62.17
2022-11-25T07:03:37.373Z,62.78
2022-11-25T07:06:05.792Z,61.57
2022-11-25T07:08:34.571Z,62.04
2022-11-25T07:11:27.260Z,61.76
2022-11-25T07:13:58.677Z,61.82
2022-11-25T07:16:27.790Z,62.43
2022-11-25T07:18:55.796Z,62.03
2022-11-25T07:21:25.506Z,61.67
2022-11-25T07:23:53.595Z,60.90
2022-11-25T07:26:24.599Z,61.13
2022-11-25T07:28:54.301Z,60.95
2022-11-25T07:31:28.735Z,60.70
2022-11-25T07:34:03.034Z,60.10
2022-11-25T07:36:32.742Z,58.58
2022-11-25T07:39:04.167Z,59.27
2022-11-25T07:41:32.355Z,58.94
2022-11-25T07:44:05.979Z,58.96
2022-11-25T07:46:48.497Z,59.61
2022-11-25T07:49:19.205Z,59.33
2022-11-25T07:51:53.895Z,60.10
2022-11-25T07:54:23.048Z,59.52
2022-11-25T07:56:51.545Z,60.61
2022-11-25T07:59:21.788Z,60.95
2022-11-25T08:01:54.732Z,60.94
2022-11-25T08:04:24.123Z,60.50
2022-11-25T08:06:53.375Z,60.52
2022-11-25T08:09:23.940Z,60.12
2022-11-25T08:11:52.649Z,60.67
2022-11-25T08:14:20.856Z,61.10
2022-11-25T08:16:48.904Z,60.92
2022-11-25T08:19:17.845Z,59.90
2022-11-25T08:21:48.255Z,58.73
2022-11-25T08:24:18.890Z,57.85
2022-11-25T08:26:47.183Z,58.18
2022-11-25T08:29:18.155Z,57.63
2022-11-25T08:31:46.375Z,57.25
2022-11-25T08:34:20.750Z,56.74
2022-11-25T08:36:50.892Z,55.85
2022-11-25T08:39:51.866Z,53.88
2022-11-25T08:42:09.602Z,53.91
2022-11-25T08:44:37.707Z,51.41
2022-11-25T08:47:05.792Z,49.06
2022-11-25T08:49:39.059Z,47.79
2022-11-25T08:52:09.745Z,46.86
2022-11-25T08:54:37.595Z,46.38
2022-11-25T08:57:05.501Z,43.14
2022-11-25T08:59:33.809Z,40.89
2022-11-25T09:02:02.440Z,38.51
2022-11-25T09:04:30.414Z,37.78
2022-11-25T09:06:58.446Z,36.76
2022-11-25T09:09:26.574Z,35.18
2022-11-25T09:11:54.675Z,33.14
2022-11-25T09:14:22.828Z,31.46
2022-11-25T09:16:50.851Z,31.84
2022-11-25T09:19:20.235Z,31.78
2022-11-25T09:21:48.111Z,31.32
2022-11-25T09:24:16.118Z,31.85
2022-11-25T09:26:45.318Z,32.55
2022-11-25T09:29:14.463Z,32.65
2022-11-25T09:31:42.717Z,32.67
2022-11-25T09:34:10.785Z,30.46
2022-11-25T09:36:38.740Z,28.12
2022-11-25T09:39:06.708Z,26.57
2022-11-25T09:42:24.237Z,28.59
2022-11-25T09:45:33.880Z,28.43
2022-11-25T09:48:26.131Z,28.79
2022-11-25T09:51:09.186Z,28.87
2022-11-25T09:54:02.095Z,30.14
2022-11-25T09:56:38.436Z,29.15
2022-11-25T09:59:24.937Z,29.73
2022-11-25T10:02:02.593Z,29.94
2022-11-25T10:04:55.219Z,31.17
2022-11-25T10:07:38.634Z,30.61
2022-11-25T10:10:13.695Z,29.93
2022-11-25T10:12:45.609Z,29.70
2022-11-25T10:15:21.862Z,31.29
2022-11-25T10:17:53.604Z,29.63
2022-11-25T10:20:26.400Z,29.58
2022-11-25T10:23:00.356Z,30.02
2022-11-25T10:25:33.150Z,30.52
2022-11-25T10:28:02.578Z,30.17
2022-11-25T10:30:45.978Z,28.98
2022-11-25T10:33:25.119Z,28.68
2022-11-25T10:36:00.751Z,27.36
2022-11-25T10:38:44.430Z,27.08
2022-11-25T10:41:17.324Z,26.19
2022-11-25T10:43:46.833Z,26.03
2022-11-25T10:46:14.855Z,25.67
2022-11-25T10:49:03.508Z,25.35
2022-11-25T10:51:37.209Z,25.70
2022-11-25T10:54:27.708Z,25.44
2022-11-25T10:57:01.668Z,26.30
2022-11-25T10:59:38.408Z,25.89
2022-11-25T11:02:25.527Z,25.23
2022-11-25T11:04:59.691Z,25.61
2022-11-25T11:07:30.912Z,26.95
2022-11-25T11:10:26.918Z,27.47
2022-11-25T11:12:58.966Z,28.44
2022-11-25T11:15:30.402Z,30.78
2022-11-25T11:18:14.693Z,31.53
2022-11-25T11:20:48.933Z,32.93
2022-11-25T11:23:17.693Z,32.75
2022-11-25T11:25:56.696Z,33.39
2022-11-25T11:28:42.783Z,34.67
2022-11-25T11:31:26.919Z,35.22
2022-11-25T11:34:27.716Z,38.33
2022-11-25T11:37:13.740Z,40.86
2022-11-25T11:39:50.805Z,42.90
2022-11-25T11:42:43.905Z,41.95
2022-11-25T11:45:36.012Z,40.84
2022-11-25T11:48:03.892Z,41.81
2022-11-25T11:50:51.000Z,43.16
2022-11-25T11:53:42.093Z,44.49
2022-11-25T11:56:35.247Z,45.61
2022-11-25T11:59:15.646Z,46.20
2022-11-25T12:01:55.678Z,47.41
2022-11-25T12:04:28.559Z,48.89
2022-11-25T12:07:06.973Z,50.42
2022-11-25T12:09:43.405Z,49.97
2022-11-25T12:12:19.433Z,50.90
2022-11-25T12:14:51.370Z,51.90
2022-11-25T12:17:31.134Z,53.44
2022-11-25T12:20:06.969Z,53.19
2022-11-25T12:22:41.752Z,53.36
2022-11-25T12:25:24.887Z,53.49
2022-11-25T12:28:05.191Z,53.17
2022-11-25T12:30:54.794Z,53.36
2022-11-25T12:33:30.889Z,53.63
2022-11-25T12:36:10.897Z,54.45
2022-11-25T12:38:51.013Z,55.05
2022-11-25T12:41:32.689Z,54.81
2022-11-25T12:44:27.138Z,54.65
2022-11-25T12:46:57.120Z,54.61
2022-11-25T12:49:30.478Z,54.87
2022-11-25T12:52:20.251Z,54.92
2022-11-25T12:55:06.291Z,54.94
2022-11-25T12:58:11.518Z,53.94
2022-11-25T13:01:02.273Z,54.08
2022-11-25T13:03:39.991Z,55.77
2022-11-25T13:06:45.458Z,54.66
2022-11-25T13:09:22.062Z,54.95
2022-11-25T13:12:09.332Z,55.43
2022-11-25T13:15:06.142Z,55.91
2022-11-25T13:17:41.285Z,56.66
2022-11-25T13:20:27.538Z,56.13
2022-11-25T13:23:22.810Z,56.14
2022-11-25T13:25:52.971Z,57.69
2022-11-25T13:28:39.093Z,57.36
2022-11-25T13:31:30.950Z,57.09
2022-11-25T13:34:24.792Z,58.12
2022-11-25T13:36:55.451Z,57.91
2022-11-25T13:39:32.510Z,57.56
2022-11-25T13:42:02.817Z,57.63
2022-11-25T13:44:49.382Z,58.08
2022-11-25T13:47:35.403Z,57.34
2022-11-25T13:50:08.276Z,57.98
2022-11-25T13:52:57.088Z,57.38
2022-11-25T13:55:32.748Z,57.28
2022-11-25T13:58:18.448Z,57.68
2022-11-25T14:00:50.865Z,57.64
2022-11-25T14:03:21.323Z,58.05
2022-11-25T14:06:29.094Z,58.75
2022-11-25T14:08:59.779Z,58.96
2022-11-25T14:11:30.559Z,59.00
2022-11-25T14:14:25.090Z,59.36
2022-11-25T14:17:02.088Z,59.05
2022-11-25T14:20:15.348Z,59.07
2022-11-25T14:23:02.146Z,58.88
2022-11-25T14:26:06.109Z,59.28
2022-11-25T14:28:56.837Z,59.09
2022-11-25T14:31:33.782Z,58.69
2022-11-25T14:34:07.354Z,58.66
2022-11-25T14:36:41.626Z,59.33
2022-11-25T14:39:30.397Z,59.45
2022-11-25T14:42:06.139Z,59.22
2022-11-25T14:44:46.975Z,59.90
2022-11-25T14:47:15.478Z,59.62
2022-11-25T14:50:00.071Z,60.28
2022-11-25T14:52:36.796Z,60.10
2022-11-25T14:55:06.671Z,60.09
2022-11-25T14:57:38.718Z,60.37
2022-11-25T15:00:12.999Z,61.05
2022-11-25T15:02:52.248Z,60.42
2022-11-25T15:05:23.873Z,61.14
2022-11-25T15:08:04.746Z,60.57
2022-11-25T15:10:53.564Z,60.09
2022-11-25T15:13:40.073Z,60.35
2022-11-25T15:16:10.923Z,61.26
2022-11-25T15:18:43.595Z,60.95
2022-11-25T15:21:15.429Z,60.78
2022-11-25T15:23:43.896Z,60.87
2022-11-25T15:26:32.972Z,61.10
2022-11-25T15:29:05.217Z,60.60
2022-11-25T15:31:35.798Z,60.26
2022-11-25T15:34:08.009Z,61.16
2022-11-25T15:36:36.301Z,60.38
2022-11-25T15:39:17.081Z,60.65
2022-11-25T15:41:49.504Z,61.03
2022-11-25T15:44:53.090Z,61.19
2022-11-25T15:47:29.492Z,60.93
2022-11-25T15:50:25.020Z,60.45
2022-11-25T15:52:59.413Z,60.65
2022-11-25T15:55:39.086Z,61.07
2022-11-25T15:58:23.014Z,60.34
2022-11-25T16:01:20.219Z,60.86
2022-11-25T16:03:50.042Z,60.87
2022-11-25T16:06:26.468Z,61.23
2022-11-25T16:09:00.473Z,61.74
2022-11-25T16:11:33.778Z,61.72
2022-11-25T16:14:29.214Z,61.64
2022-11-25T16:17:03.500Z,61.93
2022-11-25T16:19:38.265Z,61.65
2022-11-25T16:22:12.969Z,61.70
2022-11-25T16:24:48.650Z,60.98
2022-11-25T16:27:18.992Z,61.57
2022-11-25T16:30:05.802Z,61.32
2022-11-25T16:32:34.832Z,61.76
2022-11-25T16:35:23.614Z,61.34
2022-11-25T16:37:52.115Z,61.58
2022-11-25T16:40:20.664Z,61.03
2022-11-25T16:42:53.798Z,61.47
2022-11-25T16:45:23.668Z,60.94
2022-11-25T16:47:52.441Z,61.86
2022-11-25T16:50:21.960Z,61.10
2022-11-25T16:52:50.489Z,61.30
2022-11-25T16:55:19.007Z,61.29
2022-11-25T16:57:47.550Z,61.67
2022-11-25T17:00:17.436Z,61.27
2022-11-25T17:02:46.310Z,62.12
2022-11-25T17:05:23.618Z,61.32
2022-11-25T17:07:52.539Z,61.78
2022-11-25T17:10:21.862Z,61.36
2022-11-25T17:12:50.838Z,61.21
2022-11-25T17:15:20.795Z,60.79
2022-11-25T17:29:15.953Z,61.45
2022-11-25T17:31:47.715Z,61.65
2022-11-25T17:34:55.063Z,61.98
2022-11-25T17:37:58.022Z,62.23
2022-11-25T17:40:46.108Z,62.55
2022-11-25T17:43:34.824Z,61.97
2022-11-25T17:46:42.262Z,62.45
2022-11-25T17:49:44.423Z,63.42
2022-11-25T17:52:34.509Z,63.33
2022-11-25T17:55:09.222Z,63.17
2022-11-25T17:57:54.362Z,63.43
2022-11-25T18:00:49.004Z,64.14
2022-11-25T18:54:20.606Z,65.47
2022-11-25T18:57:02.276Z,65.10
2022-11-25T18:59:40.190Z,65.19
2022-11-25T19:02:18.987Z,64.57
2022-11-25T19:04:53.856Z,66.12
2022-11-25T19:07:27.733Z,65.67
2022-11-25T19:09:57.703Z,65.51
2022-11-25T19:12:26.672Z,65.99
2022-11-25T19:23:23.075Z,66.32
2022-11-25T19:25:54.013Z,65.72
2022-11-25T19:28:25.373Z,66.42
2022-11-25T19:33:51.058Z,66.09
2022-11-25T19:36:25.909Z,66.30
2022-11-25T19:38:56.634Z,66.68
2022-11-25T19:41:25.027Z,66.50
2022-11-25T19:46:52.588Z,66.72
2022-11-25T19:49:25.443Z,66.61
2022-11-25T19:51:54.947Z,67.17
2022-11-25T19:54:23.194Z,67.46
2022-11-25T19:56:51.434Z,67.87
2022-11-25T19:59:27.194Z,67.70
2022-11-25T20:01:55.876Z,67.02
2022-11-25T20:04:26.005Z,67.73
2022-11-25T20:06:57.757Z,67.63
2022-11-25T20:09:27.684Z,67.48
2022-11-25T20:11:59.136Z,68.18
2022-11-25T20:14:29.141Z,68.85
2022-11-25T20:16:57.509Z,69.24
2022-11-25T20:19:28.815Z,69.07
2022-11-25T20:22:02.735Z,68.91
2022-11-25T20:27:19.631Z,69.12
2022-11-25T20:29:48.991Z,69.05
2022-11-25T20:32:26.671Z,68.74
2022-11-25T20:34:59.072Z,69.01
2022-11-25T20:37:30.024Z,68.93
2022-11-25T20:40:01.301Z,69.07
2022-11-25T20:42:41.385Z,69.42
2022-11-25T20:45:18.511Z,69.85
2022-11-25T20:47:52.507Z,69.75
2022-11-25T20:50:22.626Z,69.69
2022-11-25T20:52:54.232Z,69.47
2022-11-25T20:55:25.195Z,69.76
2022-11-25T20:57:55.596Z,70.17
2022-11-25T21:00:29.355Z,70.50
2022-11-25T21:02:58.248Z,70.39
2022-11-25T21:05:27.883Z,71.10
2022-11-25T21:07:55.972Z,70.17
2022-11-25T21:10:26.907Z,70.67
2022-11-25T21:12:56.485Z,71.44
2022-11-25T21:15:27.860Z,70.94
2022-11-25T21:17:57.919Z,70.95
2022-11-25T21:20:26.588Z,71.10
2022-11-25T21:22:58.401Z,71.46
2022-11-25T21:25:26.727Z,71.70
2022-11-25T21:27:54.713Z,71.59
2022-11-25T21:30:31.571Z,71.62
2022-11-25T21:33:01.498Z,70.60
2022-11-25T21:35:33.478Z,71.06
2022-11-25T21:38:07.586Z,71.60
2022-11-25T21:40:42.051Z,71.49
2022-11-25T21:43:29.665Z,71.51
2022-11-25T21:46:11.837Z,71.55
2022-11-25T21:48:40.618Z,72.06
2022-11-25T21:51:14.972Z,72.85
2022-11-25T21:53:45.532Z,72.41
2022-11-25T21:56:36.307Z,72.72
2022-11-25T21:59:06.986Z,73.10
2022-11-25T22:01:38.050Z,72.60
2022-11-25T22:04:06.581Z,73.02
2022-11-25T22:06:34.511Z,72.90
2022-11-25T22:09:02.633Z,72.77
2022-11-25T22:11:33.704Z,73.07
2022-11-25T22:14:08.558Z,73.03
2022-11-25T22:16:37.209Z,73.63
2022-11-25T22:19:05.861Z,72.95
2022-11-25T22:21:34.011Z,73.17
2022-11-25T22:24:01.964Z,72.66
2022-11-25T22:26:34.524Z,72.97
2022-11-25T22:29:03.272Z,72.84
2022-11-25T22:31:31.611Z,73.18
2022-11-25T22:34:00.618Z,73.81
2022-11-25T22:36:38.297Z,72.64
2022-11-25T22:39:12.035Z,73.38
2022-11-25T22:41:41.944Z,73.02
2022-11-25T22:44:28.752Z,73.30
2022-11-25T22:46:57.268Z,73.24
2022-11-25T22:49:37.726Z,73.45
2022-11-25T22:52:10.185Z,73.51
2022-11-25T22:54:40.459Z,74.06
2022-11-25T22:57:09.708Z,73.46
2022-11-25T22:59:38.124Z,73.87
2022-11-25T23:02:07.340Z,72.99
2022-11-25T23:04:35.558Z,72.96
2022-11-25T23:07:08.088Z,73.43
2022-11-25T23:09:36.591Z,74.23
2022-11-25T23:14:46.775Z,74.22
2022-11-25T23:17:18.686Z,75.34
2022-11-25T23:19:48.721Z,74.50
2022-11-25T23:22:19.110Z,74.32
2022-11-25T23:24:50.818Z,74.86
2022-11-25T23:27:18.935Z,74.36
2022-11-25T23:29:49.217Z,73.79
2022-11-25T23:32:22.571Z,74.09
2022-11-25T23:34:51.899Z,73.32
2022-11-25T23:40:01.354Z,73.99
2022-11-25T23:42:33.618Z,74.22
2022-11-25T23:45:01.959Z,75.76
2022-11-25T23:47:34.385Z,75.62
2022-11-25T23:50:04.598Z,75.67
2022-11-25T23:52:32.862Z,74.28
2022-11-25T23:55:03.558Z,74.00
2022-11-25T23:57:38.048Z,74.14
